createdAt,value
2023-02-19T00:01:48.099Z,8.50
2023-02-19T00:04:20.252Z,8.50
2023-02-19T00:06:48.712Z,8.50
2023-02-19T00:09:17.995Z,8.50
2023-02-19T00:11:45.079Z,8.50
2023-02-19T00:14:16.313Z,8.50
2023-02-19T00:16:43.545Z,8.50
2023-02-19T00:19:15.057Z,8.50
2023-02-19T00:21:44.397Z,8.60
2023-02-19T00:24:13.607Z,8.60
2023-02-19T00:26:42.067Z,8.50
2023-02-19T00:29:13.179Z,8.50
2023-02-19T00:31:40.588Z,8.50
2023-02-19T00:34:10.143Z,8.60
2023-02-19T00:36:39.321Z,8.50
2023-02-19T00:39:07.792Z,8.60
2023-02-19T00:41:35.044Z,8.50
2023-02-19T00:44:07.356Z,8.50
2023-02-19T00:46:40.796Z,8.50
2023-02-19T00:49:09.486Z,8.50
2023-02-19T00:51:38.313Z,8.60
2023-02-19T00:54:06.457Z,8.50
2023-02-19T00:56:34.191Z,8.60
2023-02-19T00:59:01.333Z,8.60
2023-02-19T01:01:28.429Z,8.50
2023-02-19T01:03:55.682Z,8.60
2023-02-19T01:06:22.882Z,8.50
2023-02-19T01:08:50.445Z,8.50
2023-02-19T01:11:18.754Z,8.50
2023-02-19T01:13:45.906Z,8.50
2023-02-19T01:16:19.556Z,8.50
2023-02-19T01:18:48.054Z,8.50
2023-02-19T01:21:25.824Z,8.50
2023-02-19T01:23:54.059Z,8.50
2023-02-19T01:26:25.581Z,8.50
2023-02-19T01:28:52.971Z,8.50
2023-02-19T01:31:23.268Z,8.50
2023-02-19T01:33:54.343Z,8.50
2023-02-19T01:36:21.963Z,8.50
2023-02-19T01:38:49.971Z,8.50
2023-02-19T01:41:21.307Z,8.40
2023-02-19T01:44:09.917Z,8.50
2023-02-19T01:46:39.684Z,8.50
2023-02-19T01:49:09.911Z,8.50
2023-02-19T01:51:40.973Z,8.50
2023-02-19T01:54:10.786Z,8.50
2023-02-19T01:56:40.650Z,8.50
2023-02-19T01:59:08.096Z,8.40
2023-02-19T02:28:20.858Z,8.50
2023-02-19T02:30:58.431Z,8.40
2023-02-19T02:33:54.836Z,8.50
2023-02-19T02:36:27.553Z,8.50
2023-02-19T02:38:57.053Z,8.50
2023-02-19T02:41:25.410Z,8.50
2023-02-19T02:43:52.578Z,8.50
2023-02-19T02:46:26.316Z,8.50
2023-02-19T02:48:58.457Z,8.50
2023-02-19T02:51:31.636Z,8.50
2023-02-19T02:54:39.482Z,8.50
2023-02-19T02:57:09.539Z,8.50
2023-02-19T02:59:39.909Z,8.50
2023-02-19T03:02:19.097Z,8.50
2023-02-19T03:05:15.652Z,8.50
2023-02-19T03:08:02.129Z,8.50
2023-02-19T03:10:44.521Z,8.50
2023-02-19T03:13:44.993Z,8.50
2023-02-19T03:16:43.019Z,8.50
2023-02-19T03:19:20.372Z,8.50
2023-02-19T03:21:53.506Z,8.50
2023-02-19T03:24:44.820Z,8.50
2023-02-19T03:27:14.638Z,8.50
2023-02-19T03:29:44.523Z,8.50
2023-02-19T03:32:14.515Z,8.50
2023-02-19T03:34:57.294Z,8.50
2023-02-19T03:37:44.892Z,8.50
2023-02-19T03:40:13.228Z,8.50
2023-02-19T03:42:44.660Z,8.50
2023-02-19T03:45:36.089Z,8.50
2023-02-19T03:48:25.268Z,8.50
2023-02-19T03:51:16.058Z,8.50
2023-02-19T03:54:15.035Z,8.50
2023-02-19T03:56:48.482Z,8.50
2023-02-19T03:59:27.658Z,8.50
2023-02-19T04:02:01.178Z,8.50
2023-02-19T04:04:35.515Z,8.50
2023-02-19T04:07:02.939Z,8.50
2023-02-19T04:09:36.180Z,8.50
2023-02-19T04:12:06.386Z,8.50
2023-02-19T04:14:41.139Z,8.50
2023-02-19T04:17:18.015Z,8.50
2023-02-19T04:19:47.166Z,8.50
2023-02-19T04:22:16.020Z,8.50
2023-02-19T04:24:55.607Z,8.50
2023-02-19T04:27:22.820Z,8.50
2023-02-19T04:29:49.930Z,8.40
2023-02-19T04:32:17.125Z,8.50
2023-02-19T04:34:44.305Z,8.40
2023-02-19T04:37:11.770Z,8.50
2023-02-19T04:39:39.155Z,8.50
2023-02-19T04:42:06.322Z,8.50
2023-02-19T04:44:34.057Z,8.50
2023-02-19T04:47:01.431Z,8.50
2023-02-19T04:49:28.744Z,8.40
2023-02-19T04:51:55.945Z,8.40
2023-02-19T04:54:23.108Z,8.40
2023-02-19T04:56:50.995Z,8.40
2023-02-19T04:59:18.136Z,8.40
2023-02-19T05:01:45.352Z,8.40
2023-02-19T05:04:12.610Z,8.40
2023-02-19T05:06:39.675Z,8.40
2023-02-19T05:09:06.798Z,8.40
2023-02-19T05:11:33.968Z,8.30
2023-02-19T05:14:01.621Z,8.30
2023-02-19T05:16:28.796Z,8.30
2023-02-19T05:18:55.917Z,8.30
2023-02-19T05:21:23.023Z,8.20
2023-02-19T05:23:50.100Z,8.20
2023-02-19T05:26:20.586Z,8.20
2023-02-19T05:28:49.904Z,8.20
2023-02-19T05:31:17.669Z,8.20
2023-02-19T05:33:48.349Z,8.10
2023-02-19T05:36:15.427Z,8.10
2023-02-19T05:38:43.138Z,8.10
2023-02-19T05:41:12.419Z,8.10
2023-02-19T05:43:40.770Z,8.10
2023-02-19T05:46:09.016Z,8.10
2023-02-19T05:48:36.461Z,8.10
2023-02-19T05:51:08.841Z,8.10
2023-02-19T05:53:36.929Z,8.00
2023-02-19T05:56:04.259Z,8.10
2023-02-19T05:58:31.420Z,8.10
2023-02-19T06:00:58.537Z,8.10
2023-02-19T06:03:25.725Z,8.00
2023-02-19T06:05:52.826Z,8.10
2023-02-19T06:08:19.942Z,8.10
2023-02-19T06:10:48.082Z,8.10
2023-02-19T06:13:16.844Z,8.00
2023-02-19T06:15:44.844Z,8.10
2023-02-19T06:18:11.880Z,8.10
2023-02-19T06:20:39.060Z,8.10
2023-02-19T06:23:06.406Z,8.00
2023-02-19T06:25:33.509Z,8.00
2023-02-19T06:28:00.515Z,8.00
2023-02-19T06:30:27.671Z,8.00
2023-02-19T06:32:54.825Z,7.90
2023-02-19T06:35:21.935Z,7.90
2023-02-19T06:37:49.911Z,7.90
2023-02-19T06:40:17.185Z,7.90
2023-02-19T06:42:44.406Z,7.90
2023-02-19T06:45:11.549Z,7.90
2023-02-19T06:47:38.741Z,7.90
2023-02-19T06:50:07.087Z,7.90
2023-02-19T06:52:34.193Z,7.90
2023-02-19T06:55:01.221Z,7.90
2023-02-19T06:57:28.870Z,7.90
2023-02-19T06:59:55.912Z,7.90
2023-02-19T07:02:22.933Z,7.90
2023-02-19T07:04:50.000Z,7.90
2023-02-19T07:07:17.066Z,7.90
2023-02-19T07:09:44.082Z,7.90
2023-02-19T07:12:11.142Z,7.90
2023-02-19T07:14:38.133Z,7.90
2023-02-19T07:17:05.892Z,7.90
2023-02-19T07:19:33.978Z,7.90
2023-02-19T07:22:01.046Z,7.90
2023-02-19T07:24:28.074Z,7.90
2023-02-19T07:26:55.175Z,7.90
2023-02-19T07:29:22.241Z,7.90
2023-02-19T07:31:49.493Z,7.80
2023-02-19T07:34:17.527Z,7.80
2023-02-19T07:36:44.688Z,7.80
2023-02-19T07:39:14.246Z,7.80
2023-02-19T07:41:41.365Z,7.80
2023-02-19T07:44:08.524Z,7.80
2023-02-19T07:46:35.676Z,7.80
2023-02-19T07:49:02.740Z,7.80
2023-02-19T07:51:29.802Z,7.80
2023-02-19T07:53:56.844Z,7.80
2023-02-19T07:56:23.992Z,7.80
2023-02-19T07:58:51.034Z,7.80
2023-02-19T08:01:41.830Z,7.80
2023-02-19T08:04:10.477Z,7.80
2023-02-19T08:06:37.651Z,7.80
2023-02-19T08:09:05.988Z,7.90
2023-02-19T08:11:51.714Z,7.90
2023-02-19T08:14:18.963Z,7.90
2023-02-19T08:16:50.699Z,7.90
2023-02-19T08:19:19.576Z,7.80
2023-02-19T08:21:46.856Z,7.90
2023-02-19T08:24:13.906Z,7.80
2023-02-19T08:26:41.083Z,7.80
2023-02-19T08:29:08.175Z,7.80
2023-02-19T08:31:35.320Z,7.80
2023-02-19T08:34:02.905Z,7.80
2023-02-19T08:36:30.000Z,7.80
2023-02-19T08:38:57.057Z,7.80
2023-02-19T08:41:24.187Z,7.80
2023-02-19T08:43:51.321Z,7.80
2023-02-19T08:46:18.496Z,7.80
2023-02-19T08:48:45.672Z,7.80
2023-02-19T08:51:13.019Z,7.80
2023-02-19T08:53:41.483Z,7.80
2023-02-19T08:56:13.652Z,7.80
2023-02-19T08:58:40.831Z,7.90
2023-02-19T09:01:13.873Z,7.90
2023-02-19T09:03:41.579Z,7.90
2023-02-19T09:06:11.715Z,7.90
2023-02-19T09:08:38.863Z,7.90
2023-02-19T09:11:07.234Z,7.90
2023-02-19T09:13:34.386Z,7.90
2023-02-19T09:16:03.987Z,7.90
2023-02-19T09:18:31.178Z,7.90
2023-02-19T09:21:01.687Z,7.90
2023-02-19T09:23:29.174Z,8.00
2023-02-19T09:26:08.752Z,8.10
2023-02-19T09:28:36.728Z,8.10
2023-02-19T09:31:06.231Z,8.10
2023-02-19T09:33:33.730Z,8.10
2023-02-19T09:36:01.081Z,8.10
2023-02-19T09:38:29.561Z,8.10
2023-02-19T09:41:00.611Z,8.10
2023-02-19T09:43:30.111Z,8.20
2023-02-19T09:46:18.492Z,8.30
2023-02-19T09:48:45.724Z,8.40
2023-02-19T09:51:14.124Z,8.50
2023-02-19T09:53:44.573Z,8.50
2023-02-19T09:56:11.764Z,8.40
2023-02-19T09:58:49.320Z,8.40
2023-02-19T10:01:17.093Z,8.40
2023-02-19T10:03:48.786Z,8.30
2023-02-19T10:06:24.130Z,8.40
2023-02-19T10:08:54.519Z,8.30
2023-02-19T10:11:23.563Z,8.40
2023-02-19T10:14:22.759Z,8.40
2023-02-19T10:16:50.783Z,8.40
2023-02-19T10:19:18.228Z,8.40
2023-02-19T10:21:45.776Z,8.40
2023-02-19T10:24:23.808Z,8.50
2023-02-19T10:26:51.389Z,8.50
2023-02-19T10:29:20.241Z,8.50
2023-02-19T10:31:47.839Z,8.50
2023-02-19T10:34:22.415Z,8.40
2023-02-19T10:36:51.820Z,8.40
2023-02-19T10:39:37.463Z,8.40
2023-02-19T10:42:04.818Z,8.40
2023-02-19T10:44:45.843Z,8.40
2023-02-19T10:47:19.708Z,8.40
2023-02-19T10:49:48.904Z,8.30
2023-02-19T10:52:29.541Z,8.30
2023-02-19T10:55:17.698Z,8.20
2023-02-19T10:57:47.058Z,8.10
2023-02-19T11:00:16.841Z,8.10
2023-02-19T11:02:45.334Z,8.10
2023-02-19T11:05:12.322Z,8.20
2023-02-19T11:07:47.247Z,8.20
2023-02-19T11:10:27.661Z,8.30
2023-02-19T11:13:00.389Z,8.30
2023-02-19T11:15:37.274Z,8.30
2023-02-19T11:18:13.127Z,8.30
2023-02-19T11:20:54.572Z,8.20
2023-02-19T11:23:29.061Z,8.20
2023-02-19T11:25:59.390Z,8.20
2023-02-19T11:28:33.840Z,8.20
2023-02-19T11:31:29.076Z,8.20
2023-02-19T11:33:59.794Z,8.20
2023-02-19T11:36:30.998Z,8.20
2023-02-19T11:39:04.971Z,8.20
2023-02-19T11:42:23.582Z,8.30
2023-02-19T11:45:11.217Z,8.50
2023-02-19T11:47:54.678Z,8.70
2023-02-19T11:50:43.115Z,8.70
2023-02-19T11:53:37.423Z,8.80
2023-02-19T11:56:36.189Z,8.90
2023-02-19T11:59:48.747Z,9.00
2023-02-19T12:02:29.100Z,9.00
2023-02-19T12:05:34.228Z,9.10
2023-02-19T12:08:01.172Z,9.30
2023-02-19T12:23:04.816Z,8.80
2023-02-19T12:25:36.945Z,8.70
2023-02-19T12:28:27.508Z,8.70
2023-02-19T12:31:28.839Z,8.80
2023-02-19T12:34:03.518Z,8.90
2023-02-19T12:36:44.388Z,9.10
2023-02-19T12:39:49.755Z,9.20
2023-02-19T12:42:57.024Z,9.40
2023-02-19T12:45:42.952Z,9.30
2023-02-19T12:48:36.950Z,9.20
2023-02-19T12:51:26.418Z,9.10
2023-02-19T12:53:56.492Z,9.10
2023-02-19T12:56:32.459Z,9.10
2023-02-19T12:59:21.412Z,9.10
2023-02-19T13:02:15.186Z,9.20
2023-02-19T13:04:59.435Z,9.30
2023-02-19T13:07:40.911Z,9.30
2023-02-19T13:10:29.460Z,9.30
2023-02-19T13:13:00.507Z,9.30
2023-02-19T13:15:41.878Z,9.30
2023-02-19T13:18:31.986Z,9.30
2023-02-19T13:21:00.139Z,9.30
2023-02-19T13:23:48.127Z,9.20
2023-02-19T13:26:24.410Z,9.10
2023-02-19T13:29:19.262Z,9.00
2023-02-19T13:32:03.578Z,8.90
2023-02-19T13:34:56.024Z,8.90
2023-02-19T13:37:24.841Z,8.90
2023-02-19T13:39:54.150Z,8.80
2023-02-19T13:42:31.387Z,8.80
2023-02-19T13:44:59.472Z,8.80
2023-02-19T13:47:48.329Z,8.80
2023-02-19T13:50:27.014Z,8.80
2023-02-19T13:52:59.008Z,8.80
2023-02-19T13:55:46.848Z,8.80
2023-02-19T13:58:36.426Z,8.90
2023-02-19T14:01:07.035Z,8.90
2023-02-19T14:03:46.638Z,8.90
2023-02-19T14:06:14.236Z,8.90
2023-02-19T14:08:48.424Z,9.00
2023-02-19T14:11:16.273Z,8.90
2023-02-19T14:13:52.369Z,8.90
2023-02-19T14:16:33.507Z,8.80
2023-02-19T14:19:01.040Z,8.70
2023-02-19T14:21:39.693Z,8.70
2023-02-19T14:24:13.329Z,8.70
2023-02-19T14:26:41.545Z,8.70
2023-02-19T14:29:10.802Z,8.70
2023-02-19T14:31:39.050Z,8.60
2023-02-19T14:34:28.426Z,8.50
2023-02-19T14:37:01.431Z,8.50
2023-02-19T14:39:35.397Z,8.50
2023-02-19T14:42:16.109Z,8.40
2023-02-19T14:44:56.937Z,8.30
2023-02-19T14:47:29.641Z,8.30
2023-02-19T14:50:08.772Z,8.30
2023-02-19T14:52:48.250Z,8.30
2023-02-19T14:55:34.062Z,8.20
2023-02-19T14:58:12.137Z,8.10
2023-02-19T15:00:41.562Z,8.10
2023-02-19T15:03:36.371Z,8.00
2023-02-19T15:06:04.372Z,8.00
2023-02-19T15:08:45.433Z,8.00
2023-02-19T15:11:19.175Z,7.90
2023-02-19T15:13:55.689Z,7.90
2023-02-19T15:16:26.035Z,7.90
2023-02-19T15:18:55.040Z,7.80
2023-02-19T15:21:30.377Z,7.80
2023-02-19T15:24:03.225Z,7.80
2023-02-19T15:26:43.056Z,7.70
2023-02-19T15:29:15.830Z,7.70
2023-02-19T15:31:55.937Z,7.60
2023-02-19T15:34:28.615Z,7.60
2023-02-19T15:37:12.990Z,7.50
2023-02-19T15:39:44.935Z,7.50
2023-02-19T15:42:27.993Z,7.50
2023-02-19T15:45:20.990Z,7.60
2023-02-19T15:47:56.799Z,7.60
2023-02-19T15:50:30.627Z,7.60
2023-02-19T15:53:18.386Z,7.60
2023-02-19T15:56:17.821Z,7.60
2023-02-19T15:59:05.762Z,7.60
2023-02-19T16:01:37.827Z,7.60
2023-02-19T16:04:12.138Z,7.60
2023-02-19T16:07:02.289Z,7.60
2023-02-19T16:09:32.711Z,7.60
2023-02-19T16:12:01.189Z,7.60
2023-02-19T16:14:38.205Z,7.50
2023-02-19T16:17:11.197Z,7.60
2023-02-19T16:19:45.988Z,7.50
2023-02-19T16:22:24.749Z,7.50
2023-02-19T16:24:55.206Z,7.50
2023-02-19T16:27:42.170Z,7.50
2023-02-19T16:30:25.408Z,7.50
2023-02-19T16:33:31.974Z,7.50
2023-02-19T16:36:16.570Z,7.50
2023-02-19T16:39:10.064Z,7.50
2023-02-19T16:41:39.796Z,7.50
2023-02-19T16:44:25.170Z,7.50
2023-02-19T16:47:01.123Z,7.50
2023-02-19T16:49:30.552Z,7.50
2023-02-19T16:51:59.909Z,7.50
2023-02-19T16:54:26.979Z,7.50
2023-02-19T16:56:54.129Z,7.50
2023-02-19T16:59:21.276Z,7.50
2023-02-19T17:01:48.267Z,7.50
2023-02-19T17:04:16.225Z,7.40
2023-02-19T17:06:44.525Z,7.50
2023-02-19T17:09:11.604Z,7.50
2023-02-19T17:11:38.707Z,7.50
2023-02-19T17:14:05.942Z,7.50
2023-02-19T17:16:40.578Z,7.50
2023-02-19T17:19:17.027Z,7.50
2023-02-19T17:21:45.863Z,7.50
2023-02-19T17:24:13.826Z,7.50
2023-02-19T17:26:41.178Z,7.60
2023-02-19T17:29:14.186Z,7.60
2023-02-19T17:31:41.712Z,7.60
2023-02-19T17:34:09.172Z,7.60
2023-02-19T17:36:38.068Z,7.60
2023-02-19T17:39:08.877Z,7.60
2023-02-19T17:41:36.114Z,7.60
2023-02-19T17:44:03.204Z,7.50
2023-02-19T17:46:30.339Z,7.50
2023-02-19T17:48:57.451Z,7.50
2023-02-19T17:51:25.722Z,7.40
2023-02-19T17:53:52.901Z,7.40
2023-02-19T17:56:25.597Z,7.30
2023-02-19T17:58:55.278Z,7.20
2023-02-19T18:01:22.883Z,7.20
2023-02-19T18:03:51.373Z,7.10
2023-02-19T18:06:18.766Z,7.10
2023-02-19T18:08:51.362Z,7.10
2023-02-19T18:11:22.239Z,7.10
2023-02-19T18:13:51.160Z,7.10
2023-02-19T18:16:19.351Z,7.10
2023-02-19T18:18:46.476Z,7.10
2023-02-19T18:21:14.473Z,7.10
2023-02-19T18:23:42.119Z,7.00
2023-02-19T18:26:11.768Z,7.00
2023-02-19T18:28:40.281Z,7.00
2023-02-19T18:31:07.805Z,7.00
2023-02-19T18:33:35.506Z,7.00
2023-02-19T18:36:03.174Z,7.00
2023-02-19T18:38:30.376Z,7.00
2023-02-19T18:40:58.828Z,7.00
2023-02-19T18:43:26.822Z,7.00
2023-02-19T18:45:53.985Z,6.90
2023-02-19T18:48:21.228Z,6.90
2023-02-19T18:50:48.285Z,6.90
2023-02-19T18:53:15.463Z,6.80
2023-02-19T18:55:42.574Z,6.80
2023-02-19T18:58:09.685Z,6.80
2023-02-19T19:00:36.917Z,6.70
2023-02-19T19:03:04.259Z,6.70
2023-02-19T19:05:31.387Z,6.70
2023-02-19T19:07:59.736Z,6.70
2023-02-19T19:10:26.988Z,6.70
2023-02-19T19:12:54.630Z,6.70
2023-02-19T19:15:22.699Z,6.70
2023-02-19T19:17:50.328Z,6.70
2023-02-19T19:20:19.915Z,6.70
2023-02-19T19:22:50.645Z,6.70
2023-02-19T19:25:18.559Z,6.70
2023-02-19T19:27:47.360Z,6.70
2023-02-19T19:30:14.809Z,6.60
2023-02-19T19:32:42.372Z,6.60
2023-02-19T19:35:09.862Z,6.60
2023-02-19T19:37:36.995Z,6.60
2023-02-19T19:40:04.425Z,6.60
2023-02-19T19:42:32.078Z,6.60
2023-02-19T19:44:59.495Z,6.60
2023-02-19T19:47:26.713Z,6.60
2023-02-19T19:49:53.819Z,6.50
2023-02-19T19:52:22.295Z,6.60
2023-02-19T19:54:54.113Z,6.50
2023-02-19T19:57:21.614Z,6.50
2023-02-19T19:59:51.154Z,6.50
2023-02-19T20:02:19.567Z,6.50
2023-02-19T20:04:47.116Z,6.40
2023-02-19T20:07:14.194Z,6.40
2023-02-19T20:09:41.705Z,6.50
2023-02-19T20:12:09.228Z,6.40
2023-02-19T20:14:36.282Z,6.40
2023-02-19T20:17:03.435Z,6.40
2023-02-19T20:19:30.623Z,6.40
2023-02-19T20:22:00.588Z,6.40
2023-02-19T20:24:32.062Z,6.40
2023-02-19T20:27:01.485Z,6.40
2023-02-19T20:29:30.758Z,6.30
2023-02-19T20:32:00.370Z,6.40
2023-02-19T20:34:27.841Z,6.40
2023-02-19T20:36:56.291Z,6.30
2023-02-19T20:39:29.858Z,6.30
2023-02-19T20:42:00.252Z,6.30
2023-02-19T20:44:29.163Z,6.30
2023-02-19T20:46:58.844Z,6.30
2023-02-19T20:49:29.941Z,6.20
2023-02-19T20:51:59.424Z,6.30
2023-02-19T20:54:29.352Z,6.20
2023-02-19T20:56:59.358Z,6.20
2023-02-19T20:59:31.621Z,6.20
2023-02-19T21:01:59.213Z,6.10
2023-02-19T21:04:27.207Z,6.10
2023-02-19T21:06:54.556Z,6.10
2023-02-19T21:09:23.900Z,6.10
2023-02-19T21:11:53.129Z,6.10
2023-02-19T21:14:20.988Z,6.10
2023-02-19T21:16:48.437Z,6.00
2023-02-19T21:19:15.538Z,6.10
2023-02-19T21:21:42.699Z,6.00
2023-02-19T21:24:13.119Z,6.10
2023-02-19T21:26:41.368Z,6.00
2023-02-19T21:29:13.007Z,6.00
2023-02-19T21:31:43.999Z,6.00
2023-02-19T21:34:13.593Z,5.90
2023-02-19T21:36:40.738Z,5.90
2023-02-19T21:39:09.590Z,5.90
2023-02-19T21:41:36.694Z,5.80
2023-02-19T21:44:04.276Z,5.80
2023-02-19T21:46:33.286Z,5.70
2023-02-19T21:49:01.187Z,5.70
2023-02-19T21:51:37.483Z,5.60
2023-02-19T21:54:06.179Z,5.60
2023-02-19T21:56:36.228Z,5.60
2023-02-19T21:59:04.137Z,5.50
2023-02-19T22:01:39.580Z,5.50
2023-02-19T22:04:07.746Z,5.50
2023-02-19T22:06:35.089Z,5.50
2023-02-19T22:09:03.174Z,5.40
2023-02-19T22:11:30.755Z,5.40
2023-02-19T22:13:58.533Z,5.30
2023-02-19T22:16:25.895Z,5.30
2023-02-19T22:18:55.146Z,5.30
2023-02-19T22:21:23.733Z,5.30
2023-02-19T22:23:52.213Z,5.30
2023-02-19T22:26:25.828Z,5.30
2023-02-19T22:28:53.537Z,5.20
2023-02-19T22:31:23.103Z,5.20
2023-02-19T22:33:50.828Z,5.10
2023-02-19T22:36:27.937Z,5.10
2023-02-19T22:38:55.199Z,5.10
2023-02-19T22:41:22.873Z,5.00
2023-02-19T22:43:50.426Z,5.00
2023-02-19T22:46:20.842Z,4.90
2023-02-19T22:48:47.884Z,4.90
2023-02-19T22:51:17.643Z,4.90
2023-02-19T22:53:48.612Z,4.80
2023-02-19T22:56:17.802Z,4.80
2023-02-19T22:58:45.658Z,4.70
2023-02-19T23:01:13.889Z,4.70
2023-02-19T23:03:52.867Z,4.70
2023-02-19T23:06:32.148Z,4.70
2023-02-19T23:09:03.900Z,4.60
2023-02-19T23:11:34.654Z,4.60
2023-02-19T23:14:02.314Z,4.60
2023-02-19T23:16:29.997Z,4.50
2023-02-19T23:18:57.137Z,4.50
2023-02-19T23:21:24.314Z,4.50
2023-02-19T23:23:51.537Z,4.50
2023-02-19T23:26:19.426Z,4.50
2023-02-19T23:28:47.266Z,4.50
2023-02-19T23:31:14.923Z,4.50
2023-02-19T23:33:42.382Z,4.40
2023-02-19T23:36:13.546Z,4.40
2023-02-19T23:38:43.268Z,4.40
2023-02-19T23:41:11.650Z,4.40
2023-02-19T23:43:38.814Z,4.40
2023-02-19T23:46:06.255Z,4.40
2023-02-19T23:48:33.426Z,4.40
2023-02-19T23:51:00.525Z,4.40
2023-02-19T23:53:27.836Z,4.30
2023-02-19T23:55:55.135Z,4.40
2023-02-19T23:58:22.353Z,4.40
